Time;durP1;ratioP1;P1;durP2;ratioP2;P2;SDS_P1;SDS_P2;PMS_P1;PMS_P2;Temp;Humidity;BMP_temperature;BMP_pressure;BME280_temperature;BME280_humidity;BME280_pressure;Samples;Min_cycle;Max_cycle;Signal;HPM_P1;HPM_P2
2021/01/22 00:02:07;;;;;;;11.52;2.92;;;;;;;5.13;69.10;96498.16;4986304;28;20480;-78
2021/01/22 00:04:35;;;;;;;11.93;2.95;;;;;;;5.56;68.46;96495.59;4987705;28;20050;-76
2021/01/22 00:07:02;;;;;;;20.17;2.75;;;;;;;5.49;68.44;96504.50;4985590;28;20051;-77
2021/01/22 00:09:29;;;;;;;14.32;2.95;;;;;;;5.50;68.88;96505.34;4979903;28;20056;-78
2021/01/22 00:11:55;;;;;;;17.27;2.72;;;;;;;5.31;69.43;96507.81;4998618;28;20100;-77
2021/01/22 00:14:22;;;;;;;12.98;3.95;;;;;;;5.16;69.41;96508.38;4978146;28;20080;-77
2021/01/22 00:16:49;;;;;;;18.92;3.42;;;;;;;5.09;69.83;96517.25;4985963;28;20073;-78
2021/01/22 00:19:15;;;;;;;23.02;3.92;;;;;;;5.47;68.68;96508.88;4997403;28;20050;-77
2021/01/22 00:21:42;;;;;;;13.18;2.40;;;;;;;5.35;69.19;96506.78;5012160;28;20172;-77
2021/01/22 00:24:09;;;;;;;19.30;3.20;;;;;;;5.31;68.70;96512.13;5003430;28;20595;-76
2021/01/22 00:26:35;;;;;;;23.75;3.03;;;;;;;5.20;68.99;96512.53;4993792;28;20045;-76
2021/01/22 00:29:02;;;;;;;17.60;2.60;;;;;;;5.54;68.01;96522.47;5000390;28;20535;-77
2021/01/22 00:31:28;;;;;;;14.35;2.85;;;;;;;5.45;68.10;96526.25;4994508;28;20058;-76
2021/01/22 00:33:55;;;;;;;11.75;3.38;;;;;;;5.61;67.43;96523.94;5001996;28;20053;-77
2021/01/22 00:36:22;;;;;;;20.13;3.08;;;;;;;5.30;68.74;96526.81;5004751;28;20037;-77
2021/01/22 00:38:48;;;;;;;14.50;2.15;;;;;;;5.41;68.57;96529.84;5000445;28;20120;-77
2021/01/22 00:41:15;;;;;;;17.85;3.20;;;;;;;5.33;69.02;96524.09;4976660;28;20798;-78
2021/01/22 00:43:43;;;;;;;15.27;3.05;;;;;;;5.69;67.53;96527.06;4943679;28;20560;-76
2021/01/22 00:46:09;;;;;;;15.82;2.72;;;;;;;5.64;68.20;96534.16;4976913;28;20050;-77
2021/01/22 00:48:38;;;;;;;16.58;2.50;;;;;;;5.09;69.75;96527.59;4973715;28;20602;-77
2021/01/22 00:51:04;;;;;;;19.30;2.95;;;;;;;5.51;68.48;96530.34;4978443;28;20114;-77
2021/01/22 00:53:31;;;;;;;15.23;2.92;;;;;;;5.43;69.21;96537.53;4978286;28;20477;-76
2021/01/22 00:55:57;;;;;;;20.88;2.60;;;;;;;5.21;69.47;96540.09;4978571;28;20465;-77
2021/01/22 00:58:24;;;;;;;21.67;3.40;;;;;;;5.33;69.43;96554.31;4977785;28;20169;-77
2021/01/22 01:00:50;;;;;;;27.65;4.30;;;;;;;5.05;70.35;96549.31;4961808;28;20154;-77
2021/01/22 01:03:17;;;;;;;20.92;3.40;;;;;;;5.24;69.61;96546.00;4969196;28;20231;-78
2021/01/22 01:05:44;;;;;;;21.02;2.90;;;;;;;5.23;69.10;96552.06;4960146;28;20054;-77
2021/01/22 01:08:10;;;;;;;15.82;2.88;;;;;;;5.34;68.68;96556.84;4974124;28;20524;-78
2021/01/22 01:10:37;;;;;;;23.70;3.30;;;;;;;5.03;69.28;96541.63;4977799;28;20054;-77
2021/01/22 01:13:03;;;;;;;21.35;3.03;;;;;;;5.04;69.85;96553.63;4976500;28;20138;-77
2021/01/22 01:15:30;;;;;;;13.57;3.17;;;;;;;5.43;68.58;96556.50;4969300;28;20806;-76
2021/01/22 01:17:57;;;;;;;16.40;2.83;;;;;;;5.12;68.79;96561.13;4958384;28;20133;-78
2021/01/22 01:20:23;;;;;;;15.13;2.70;;;;;;;5.31;68.27;96572.50;4980358;28;20042;-77
2021/01/22 01:22:50;;;;;;;23.38;3.22;;;;;;;5.05;69.24;96570.84;4976033;28;20137;-77
2021/01/22 01:25:17;;;;;;;19.85;2.63;;;;;;;5.46;67.40;96571.94;4965735;28;20363;-78
2021/01/22 01:27:47;;;;;;;20.63;3.20;;;;;;;5.31;67.95;96564.75;4975503;28;20417;-78
2021/01/22 01:30:14;;;;;;;18.27;2.90;;;;;;;4.97;69.54;96569.44;4966551;28;20058;-77
2021/01/22 01:32:41;;;;;;;21.90;3.03;;;;;;;5.33;68.32;96577.59;4980264;28;20054;-77
2021/01/22 01:35:09;;;;;;;14.55;3.35;;;;;;;5.25;68.44;96564.97;4964754;28;20108;-78
2021/01/22 01:37:36;;;;;;;11.57;2.67;;;;;;;5.07;68.03;96558.72;4976190;28;20101;-77
2021/01/22 01:40:04;;;;;;;20.90;3.22;;;;;;;5.11;68.60;96557.69;4974259;28;20050;-77
2021/01/22 01:42:31;;;;;;;19.98;2.78;;;;;;;5.04;68.34;96560.53;4982126;28;20038;-76
2021/01/22 01:44:58;;;;;;;18.45;3.50;;;;;;;5.27;67.67;96564.00;4962809;28;20141;-78
2021/01/22 01:47:24;;;;;;;13.80;3.03;;;;;;;4.94;68.66;96572.13;4977943;28;20046;-77
2021/01/22 01:49:51;;;;;;;19.50;3.28;;;;;;;5.12;68.62;96574.06;4963407;28;20445;-77
2021/01/22 01:52:17;;;;;;;10.88;3.22;;;;;;;4.88;69.21;96568.03;4995174;28;20113;-77
2021/01/22 01:54:44;;;;;;;14.75;2.45;;;;;;;5.04;69.20;96565.72;4979864;28;20128;-78
2021/01/22 01:57:14;;;;;;;8.38;2.47;;;;;;;5.01;69.28;96581.34;4980911;28;20482;-77
2021/01/22 01:59:41;;;;;;;14.32;2.72;;;;;;;5.23;68.72;96579.69;4995905;28;20078;-77
2021/01/22 02:02:09;;;;;;;16.25;3.17;;;;;;;5.09;68.46;96587.94;4963538;28;20337;-77
2021/01/22 02:04:37;;;;;;;22.40;2.88;;;;;;;4.84;69.65;96587.13;4976519;28;20050;-77
2021/01/22 02:07:04;;;;;;;22.17;2.55;;;;;;;5.01;68.59;96600.31;4966099;28;20073;-77
2021/01/22 02:09:31;;;;;;;14.77;2.22;;;;;;;5.12;67.86;96603.38;4993453;28;20049;-78
2021/01/22 02:11:59;;;;;;;11.05;2.42;;;;;;;4.97;67.96;96600.47;4981090;28;20049;-77
2021/01/22 02:14:26;;;;;;;17.42;3.10;;;;;;;4.86;68.95;96606.00;4975541;28;20053;-76
2021/01/22 02:16:53;;;;;;;20.27;2.95;;;;;;;4.92;68.90;96598.06;5017656;28;20049;-77
2021/01/22 02:19:34;;;;;;;16.95;2.75;;;;;;;5.14;68.69;96621.41;5012593;28;20046;-78
2021/01/22 02:22:02;;;;;;;17.40;3.80;;;;;;;5.25;68.09;96614.13;5019397;28;20675;-78
2021/01/22 02:24:30;;;;;;;17.05;2.97;;;;;;;5.07;69.10;96607.03;4998867;28;20399;-78
2021/01/22 02:27:01;;;;;;;15.23;3.60;;;;;;;4.91;69.76;96614.47;5026037;28;20553;-78
2021/01/22 02:29:30;;;;;;;13.93;2.90;;;;;;;5.04;69.65;96607.97;5019948;28;20046;-76
2021/01/22 02:32:03;;;;;;;9.00;2.28;;;;;;;5.04;69.58;96612.28;5020969;28;20083;-78
2021/01/22 02:34:34;;;;;;;16.40;3.05;;;;;;;5.04;69.13;96609.69;5020681;28;20041;-78
2021/01/22 02:37:04;;;;;;;18.33;2.55;;;;;;;5.27;68.61;96618.34;5020953;28;21963;-77
2021/01/22 02:39:40;;;;;;;25.70;3.35;;;;;;;5.06;69.02;96626.88;5022640;28;20052;-78
2021/01/22 02:42:08;;;;;;;15.38;2.67;;;;;;;5.19;68.18;96628.13;5018176;28;20057;-78
2021/01/22 02:44:36;;;;;;;15.23;3.00;;;;;;;5.37;67.98;96638.75;5006799;28;20069;-77
2021/01/22 02:47:10;;;;;;;17.15;2.90;;;;;;;5.14;68.88;96636.94;5002830;28;20049;-77
2021/01/22 02:49:41;;;;;;;13.93;2.53;;;;;;;4.68;70.87;96641.09;5002293;28;20137;-79
2021/01/22 02:52:09;;;;;;;29.58;3.05;;;;;;;5.49;67.82;96643.47;5019734;28;20084;-77
2021/01/22 02:54:36;;;;;;;10.88;2.40;;;;;;;5.15;68.16;96646.41;5005541;28;20207;-76
2021/01/22 02:57:14;;;;;;;20.95;2.45;;;;;;;5.27;68.66;96656.34;5002708;28;20392;-77
2021/01/22 02:59:49;;;;;;;17.02;2.45;;;;;;;4.87;69.79;96659.44;5024570;28;20041;-77
2021/01/22 03:02:34;;;;;;;15.68;3.05;;;;;;;5.34;67.96;96651.78;5004999;28;20052;-77
2021/01/22 03:05:04;;;;;;;15.35;2.75;;;;;;;5.28;68.33;96655.41;5005062;28;20475;-78
2021/01/22 03:07:46;;;;;;;16.25;3.78;;;;;;;5.39;68.00;96661.06;5002856;28;20107;-76
2021/01/22 03:10:19;;;;;;;23.90;3.17;;;;;;;5.18;68.64;96654.91;5009509;28;20053;-77
2021/01/22 03:12:50;;;;;;;23.50;2.80;;;;;;;5.19;68.78;96645.38;5019061;28;20057;-76
2021/01/22 03:15:19;;;;;;;16.00;2.92;;;;;;;5.20;68.46;96636.75;5024421;28;20053;-78
2021/01/22 03:17:46;;;;;;;27.50;3.05;;;;;;;5.31;68.74;96652.75;5016917;28;20136;-76
2021/01/22 03:20:16;;;;;;;17.65;2.97;;;;;;;5.18;68.56;96652.31;5006371;28;20069;-77
2021/01/22 03:22:42;;;;;;;21.13;3.03;;;;;;;5.46;67.26;96664.31;5020452;28;20488;-77
2021/01/22 03:25:10;;;;;;;17.33;3.50;;;;;;;5.14;68.41;96666.25;5005862;28;20042;-77
2021/01/22 03:27:37;;;;;;;22.23;2.67;;;;;;;4.99;69.48;96668.53;4981716;28;20050;-76
2021/01/22 03:30:05;;;;;;;24.33;3.40;;;;;;;4.86;69.80;96665.50;5004801;28;20046;-76
2021/01/22 03:32:32;;;;;;;14.68;2.72;;;;;;;5.34;68.09;96677.66;5000367;28;20049;-76
2021/01/22 03:34:59;;;;;;;19.45;3.30;;;;;;;5.43;68.30;96673.00;5002444;28;20051;-76
2021/01/22 03:37:25;;;;;;;19.35;3.35;;;;;;;4.99;70.29;96663.38;4980479;28;20552;-77
2021/01/22 03:39:52;;;;;;;14.93;3.55;;;;;;;5.39;69.02;96670.56;4986707;28;20547;-76
2021/01/22 03:42:18;;;;;;;21.50;3.20;;;;;;;5.31;69.29;96665.69;5001136;28;20049;-76
2021/01/22 03:44:45;;;;;;;18.08;2.70;;;;;;;4.85;70.29;96661.22;4983870;28;20081;-77
2021/01/22 03:47:12;;;;;;;14.32;2.30;;;;;;;4.98;69.55;96653.91;4989161;28;20045;-77
2021/01/22 03:49:40;;;;;;;16.15;2.60;;;;;;;4.90;69.87;96679.16;4983827;28;20069;-76
2021/01/22 03:52:06;;;;;;;14.48;2.05;;;;;;;5.15;69.13;96669.69;4985296;28;20038;-77
2021/01/22 03:54:33;;;;;;;13.90;2.47;;;;;;;5.44;68.10;96671.25;4984903;28;20168;-77
2021/01/22 03:56:59;;;;;;;18.73;2.42;;;;;;;5.03;69.54;96678.72;5003906;28;20451;-77
2021/01/22 03:59:26;;;;;;;16.35;2.22;;;;;;;5.10;69.20;96682.78;4988441;28;20044;-77
2021/01/22 04:01:52;;;;;;;20.13;2.97;;;;;;;4.95;69.44;96670.34;5003070;28;20519;-77
2021/01/22 04:04:19;;;;;;;18.67;2.60;;;;;;;5.19;68.89;96673.84;5004589;28;20057;-76
2021/01/22 04:07:00;;;;;;;10.77;1.88;;;;;;;5.01;69.15;96680.50;5017742;28;20085;-77
2021/01/22 04:09:28;;;;;;;18.63;3.08;;;;;;;4.98;69.16;96684.94;5017307;28;20129;-77
2021/01/22 04:11:58;;;;;;;18.05;2.70;;;;;;;5.30;67.86;96683.84;5023294;28;20057;-77
2021/01/22 04:14:25;;;;;;;13.70;2.28;;;;;;;5.03;68.27;96676.16;5016377;28;20440;-76
2021/01/22 04:16:58;;;;;;;12.10;2.05;;;;;;;4.95;69.03;96679.84;4985873;28;20050;-77
2021/01/22 04:19:26;;;;;;;13.63;2.28;;;;;;;5.21;67.31;96685.88;4978599;28;20039;-77
2021/01/22 04:21:56;;;;;;;17.13;2.70;;;;;;;5.15;67.75;96687.81;4979181;28;20042;-79
2021/01/22 04:24:23;;;;;;;22.58;2.80;;;;;;;5.26;67.23;96680.53;4977638;28;20105;-77
2021/01/22 04:26:51;;;;;;;16.48;2.03;;;;;;;5.48;66.48;96694.41;4967875;28;20045;-77
2021/01/22 04:29:19;;;;;;;15.80;1.90;;;;;;;5.54;66.31;96701.09;4980953;28;20156;-77
2021/01/22 04:31:45;;;;;;;17.35;3.47;;;;;;;5.29;67.38;96698.53;4980070;28;20081;-77
2021/01/22 04:34:12;;;;;;;19.10;2.22;;;;;;;5.28;67.03;96697.69;4982421;28;20129;-77
2021/01/22 04:36:39;;;;;;;18.05;3.00;;;;;;;4.97;68.46;96691.88;4978352;28;20064;-76
2021/01/22 04:39:06;;;;;;;16.30;2.15;;;;;;;5.41;67.00;96692.94;4999983;28;20844;-77
2021/01/22 04:41:33;;;;;;;13.50;2.22;;;;;;;5.05;67.57;96704.53;4993408;28;20058;-77
2021/01/22 04:44:01;;;;;;;19.40;3.22;;;;;;;5.04;67.77;96693.34;4996320;28;20050;-78
2021/01/22 04:46:36;;;;;;;15.13;2.72;;;;;;;5.22;67.54;96695.31;4963466;28;20081;-77
2021/01/22 04:49:05;;;;;;;8.15;2.17;;;;;;;4.91;69.00;96705.00;4997845;28;21609;-78
2021/01/22 04:51:36;;;;;;;14.13;2.28;;;;;;;5.11;68.66;96700.00;4973679;28;20181;-77
2021/01/22 04:54:08;;;;;;;13.75;2.15;;;;;;;5.10;68.39;96697.47;4967060;28;20073;-77
2021/01/22 04:56:58;;;;;;;20.45;2.40;;;;;;;5.14;68.32;96699.03;4937188;28;20185;-76
2021/01/22 04:59:34;;;;;;;21.27;2.60;;;;;;;5.24;67.54;96685.75;4936988;28;20062;-77
2021/01/22 05:02:02;;;;;;;11.80;2.00;;;;;;;5.01;68.31;96701.22;4924170;28;20061;-77
2021/01/22 05:04:29;;;;;;;14.88;3.03;;;;;;;4.93;68.13;96676.50;4941735;28;20086;-76
2021/01/22 05:06:55;;;;;;;14.25;3.63;;;;;;;5.42;66.51;96689.44;4940523;28;20071;-77
2021/01/22 05:09:24;;;;;;;16.50;3.03;;;;;;;5.05;68.16;96701.94;4956004;28;20047;-77
2021/01/22 05:11:53;;;;;;;15.13;2.20;;;;;;;4.91;68.43;96701.56;4943696;28;20484;-77
2021/01/22 05:14:20;;;;;;;9.43;3.17;;;;;;;5.28;68.04;96694.25;4939813;28;20051;-78
2021/01/22 05:17:25;;;;;;;28.63;4.47;;;;;;;5.08;68.67;96697.53;4954640;28;20506;-78
2021/01/22 05:20:04;;;;;;;15.32;3.00;;;;;;;5.24;68.42;96714.22;4902613;29;20070;-77
2021/01/22 05:22:31;;;;;;;21.60;2.90;;;;;;;5.16;67.78;96710.19;4888642;29;20106;-77
2021/01/22 05:25:01;;;;;;;13.43;2.47;;;;;;;4.96;67.89;96710.00;4905859;29;20531;-77
2021/01/22 05:27:47;;;;;;;19.98;2.72;;;;;;;5.03;67.79;96704.59;4901739;29;20048;-76
2021/01/22 05:30:14;;;;;;;19.42;3.00;;;;;;;4.97;67.98;96698.78;4920341;29;20054;-77
2021/01/22 05:32:41;;;;;;;9.57;2.10;;;;;;;5.06;68.08;96701.06;4885609;29;20553;-76
2021/01/22 05:35:08;;;;;;;17.75;2.25;;;;;;;5.14;67.38;96702.47;4891297;29;20122;-77
2021/01/22 05:37:50;;;;;;;10.55;2.40;;;;;;;5.25;67.50;96709.88;4898984;29;20150;-76
2021/01/22 05:40:16;;;;;;;18.53;2.67;;;;;;;5.32;67.18;96713.13;4891557;29;20056;-77
2021/01/22 05:42:51;;;;;;;21.92;2.35;;;;;;;5.22;67.43;96716.03;4917931;29;20151;-75
2021/01/22 05:45:33;;;;;;;11.00;2.60;;;;;;;4.83;68.85;96725.09;4923467;29;20039;-77
2021/01/22 05:48:00;;;;;;;15.77;2.75;;;;;;;5.26;67.73;96724.53;4918247;29;20055;-77
2021/01/22 05:50:43;;;;;;;17.58;3.03;;;;;;;5.19;67.99;96723.03;4945912;28;20049;-77
2021/01/22 05:53:15;;;;;;;18.88;2.83;;;;;;;5.06;68.34;96714.84;5018830;28;20496;-77
2021/01/22 05:55:41;;;;;;;15.13;2.72;;;;;;;5.27;67.42;96723.63;5019684;28;20052;-75
2021/01/22 05:58:08;;;;;;;22.35;3.28;;;;;;;4.95;69.31;96726.41;5018389;28;20156;-76
2021/01/22 06:00:35;;;;;;;17.92;3.40;;;;;;;5.40;68.06;96727.47;5024478;28;20045;-77
2021/01/22 06:03:34;;;;;;;15.95;3.05;;;;;;;5.02;69.45;96728.78;4991302;28;20416;-76
2021/01/22 06:06:01;;;;;;;19.42;3.83;;;;;;;4.98;69.77;96732.38;4929558;28;20055;-77
2021/01/22 06:08:28;;;;;;;20.38;3.60;;;;;;;5.17;68.48;96751.56;4941144;28;20047;-77
2021/01/22 06:10:55;;;;;;;16.52;3.80;;;;;;;5.19;68.51;96746.31;4943925;28;20046;-77
2021/01/22 06:13:26;;;;;;;19.60;3.45;;;;;;;5.01;68.27;96726.22;4925096;28;20354;-77
2021/01/22 06:15:57;;;;;;;12.27;2.60;;;;;;;4.97;69.08;96753.09;4938672;28;20055;-76
2021/01/22 06:18:31;;;;;;;25.73;3.20;;;;;;;5.38;67.93;96751.72;4940863;28;20054;-77
2021/01/22 06:21:25;;;;;;;21.85;3.15;;;;;;;5.31;68.79;96753.69;4945781;28;20082;-77
2021/01/22 06:23:53;;;;;;;20.58;4.82;;;;;;;5.18;68.96;96758.41;4924098;28;20062;-77
2021/01/22 06:26:20;;;;;;;21.05;3.30;;;;;;;5.19;70.16;96754.06;4942837;28;20533;-79
2021/01/22 06:28:50;;;;;;;15.73;3.80;;;;;;;5.34;69.93;96766.50;4943445;28;20567;-78
2021/01/22 06:31:17;;;;;;;16.67;3.65;;;;;;;5.21;69.67;96770.41;4946355;28;20123;-76
2021/01/22 06:33:48;;;;;;;10.65;2.40;;;;;;;5.09;69.67;96750.09;4949887;28;20055;-76
2021/01/22 06:36:16;;;;;;;6.63;2.15;;;;;;;4.88;70.37;96749.06;4943693;28;20062;-77
2021/01/22 06:38:43;;;;;;;7.07;1.45;;;;;;;4.93;70.08;96777.38;4943624;28;20065;-77
2021/01/22 06:41:10;;;;;;;11.07;2.10;;;;;;;4.90;69.67;96775.72;4941077;28;20062;-77
2021/01/22 06:43:38;;;;;;;12.18;3.10;;;;;;;4.99;68.96;96754.72;5018453;28;20046;-75
2021/01/22 06:46:17;;;;;;;14.77;2.17;;;;;;;5.25;68.19;96779.75;5015916;28;20184;-77
2021/01/22 06:48:52;;;;;;;21.48;2.35;;;;;;;5.16;67.89;96782.66;5002729;28;20057;-77
2021/01/22 06:51:19;;;;;;;18.33;2.90;;;;;;;4.89;69.43;96786.97;5000891;28;20427;-77
2021/01/22 06:54:08;;;;;;;9.68;2.03;;;;;;;4.67;69.64;96791.97;4986981;28;20054;-76
2021/01/22 06:56:51;;;;;;;17.83;2.47;;;;;;;5.26;67.30;96797.84;5001596;28;20050;-76
2021/01/22 06:59:21;;;;;;;17.95;2.35;;;;;;;5.23;67.20;96790.16;5019500;28;20096;-77
2021/01/22 07:01:49;;;;;;;18.73;2.35;;;;;;;5.20;66.98;96807.53;5015467;28;20485;-76
2021/01/22 07:04:41;;;;;;;22.55;3.28;;;;;;;5.45;66.87;96807.56;5007428;28;20481;-77
2021/01/22 07:07:08;;;;;;;21.40;4.57;;;;;;;5.30;66.96;96816.69;4995882;28;20398;-77
2021/01/22 07:09:45;;;;;;;17.25;3.13;;;;;;;5.11;68.12;96816.44;5007599;28;20053;-76
2021/01/22 07:12:15;;;;;;;21.00;3.30;;;;;;;5.03;68.82;96805.50;5018949;28;20566;-76
2021/01/22 07:14:46;;;;;;;18.05;3.15;;;;;;;5.13;69.14;96822.41;5004982;28;20318;-77
2021/01/22 07:17:36;;;;;;;12.65;3.10;;;;;;;5.24;69.04;96819.47;4979512;28;20050;-76
2021/01/22 07:20:12;;;;;;;27.42;3.80;;;;;;;5.19;69.14;96822.22;4967303;28;20129;-77
2021/01/22 07:22:53;;;;;;;23.30;3.78;;;;;;;5.22;68.45;96818.69;4979029;28;20053;-77
2021/01/22 07:25:32;;;;;;;19.63;3.13;;;;;;;5.04;69.03;96832.19;4982770;28;20046;-78
2021/01/22 07:28:23;;;;;;;15.98;3.00;;;;;;;4.97;69.09;96833.28;4982549;28;20041;-75
2021/01/22 07:30:53;;;;;;;19.85;3.28;;;;;;;5.32;68.19;96834.78;4950362;28;20069;-76
2021/01/22 07:33:25;;;;;;;21.88;4.15;;;;;;;4.96;68.55;96834.19;4980396;28;20089;-76
2021/01/22 07:36:11;;;;;;;16.83;2.75;;;;;;;4.99;68.39;96839.28;4967764;28;20105;-76
2021/01/22 07:38:40;;;;;;;21.35;3.45;;;;;;;4.95;68.19;96850.59;4976075;28;20046;-77
2021/01/22 07:41:08;;;;;;;18.27;3.08;;;;;;;5.04;68.50;96843.38;4961936;28;20760;-76
2021/01/22 07:43:35;;;;;;;16.75;3.13;;;;;;;5.07;68.00;96848.50;4986174;28;20055;-77
2021/01/22 07:46:04;;;;;;;20.50;2.97;;;;;;;5.10;68.42;96855.28;4966315;28;20070;-77
2021/01/22 07:48:31;;;;;;;19.42;3.08;;;;;;;4.88;68.98;96846.50;4981748;28;20468;-77
2021/01/22 07:50:57;;;;;;;19.65;3.05;;;;;;;5.29;67.43;96869.34;4997025;28;20051;-76
2021/01/22 07:53:24;;;;;;;20.63;3.20;;;;;;;5.06;67.92;96875.25;4976334;28;20046;-76
2021/01/22 07:55:52;;;;;;;18.90;3.20;;;;;;;5.05;68.38;96863.19;4966393;28;20057;-76
2021/01/22 07:58:18;;;;;;;21.90;3.60;;;;;;;5.13;67.56;96881.09;4981979;28;20050;-76
2021/01/22 08:00:46;;;;;;;22.70;3.60;;;;;;;5.13;68.06;96881.91;4957058;28;20077;-75
2021/01/22 08:03:13;;;;;;;18.88;3.10;;;;;;;5.39;67.84;96891.47;4979735;28;20081;-76
2021/01/22 08:05:41;;;;;;;15.48;3.00;;;;;;;4.96;68.71;96894.53;4975454;28;20069;-77
2021/01/22 08:08:19;;;;;;;22.20;3.20;;;;;;;5.05;68.47;96883.03;4967068;28;20065;-78
2021/01/22 08:10:46;;;;;;;18.05;3.72;;;;;;;5.10;68.33;96874.25;4997796;28;20142;-78
2021/01/22 08:13:15;;;;;;;18.75;3.50;;;;;;;5.47;67.36;96893.78;4982029;28;20100;-76
2021/01/22 08:15:44;;;;;;;15.10;2.95;;;;;;;5.55;67.40;96902.19;4955054;28;20597;-76
2021/01/22 08:18:13;;;;;;;16.55;3.30;;;;;;;5.43;67.39;96903.41;4984453;28;20042;-76
2021/01/22 08:20:49;;;;;;;25.70;4.03;;;;;;;5.28;67.85;96909.06;4984544;28;20161;-77
2021/01/22 08:23:20;;;;;;;17.77;4.95;;;;;;;5.24;68.02;96921.25;4974110;28;20586;-78
2021/01/22 08:25:47;;;;;;;19.08;4.00;;;;;;;5.27;67.84;96917.75;4983987;28;20042;-77
2021/01/22 08:28:15;;;;;;;18.58;3.40;;;;;;;5.35;67.68;96920.09;4985932;28;20127;-77
2021/01/22 08:30:41;;;;;;;15.60;2.88;;;;;;;5.30;68.42;96916.78;4981911;28;20054;-76
2021/01/22 08:33:08;;;;;;;21.60;3.53;;;;;;;5.47;67.34;96915.34;4984444;28;20050;-76
2021/01/22 08:35:35;;;;;;;19.58;4.30;;;;;;;5.37;68.36;96918.31;4944899;28;20133;-79
2021/01/22 08:38:04;;;;;;;16.48;3.83;;;;;;;5.21;68.02;96907.56;4984917;28;20560;-76
2021/01/22 08:40:41;;;;;;;17.30;3.78;;;;;;;5.55;66.88;96928.06;4979755;28;20070;-76
2021/01/22 08:43:15;;;;;;;19.50;3.45;;;;;;;5.45;66.89;96922.34;4983425;28;20048;-76
2021/01/22 08:46:02;;;;;;;16.40;3.08;;;;;;;5.75;66.33;96930.88;4980708;28;20208;-76
2021/01/22 08:48:29;;;;;;;16.85;2.80;;;;;;;5.70;66.44;96917.22;4985952;28;20073;-75
2021/01/22 08:51:02;;;;;;;17.17;3.00;;;;;;;5.76;66.18;96947.25;4985178;28;20232;-77
2021/01/22 08:53:29;;;;;;;23.17;3.33;;;;;;;5.53;66.31;96933.28;4970091;28;20052;-77
2021/01/22 08:56:11;;;;;;;17.17;2.55;;;;;;;5.52;66.35;96943.69;4986620;28;20405;-77
2021/01/22 08:59:02;;;;;;;17.02;2.65;;;;;;;5.75;65.39;96949.00;5000611;28;20054;-77
2021/01/22 09:01:47;;;;;;;15.52;2.70;;;;;;;5.90;65.79;96953.69;4969537;28;20046;-77
2021/01/22 09:04:25;;;;;;;22.48;3.00;;;;;;;5.67;65.93;96949.25;4991364;28;20045;-77
2021/01/22 09:07:17;;;;;;;18.40;2.53;;;;;;;6.04;64.69;96950.69;4996561;28;20046;-77
2021/01/22 09:09:49;;;;;;;18.90;2.88;;;;;;;6.22;64.26;96949.22;4964895;28;20049;-79
2021/01/22 09:12:44;;;;;;;24.33;3.60;;;;;;;5.94;65.43;96970.03;4984467;28;20424;-78
2021/01/22 09:15:16;;;;;;;23.52;2.88;;;;;;;6.25;64.07;96972.44;4994931;28;20513;-78
2021/01/22 09:17:53;;;;;;;19.15;2.65;;;;;;;6.43;62.70;96962.28;4971063;28;20130;-78
2021/01/22 09:20:25;;;;;;;16.92;2.42;;;;;;;6.88;61.82;96969.34;4962380;28;20073;-78
2021/01/22 09:22:54;;;;;;;12.57;2.70;;;;;;;7.62;59.55;96978.66;4964378;28;20039;-80
2021/01/22 09:25:26;;;;;;;14.02;2.25;;;;;;;8.32;57.10;96976.66;4974651;28;20039;-79
2021/01/22 09:27:53;;;;;;;14.85;2.75;;;;;;;8.59;55.75;96991.09;4986498;28;20497;-77
2021/01/22 09:30:24;;;;;;;12.68;2.08;;;;;;;9.45;53.23;96982.94;4978424;28;20117;-79
2021/01/22 09:32:53;;;;;;;14.73;2.33;;;;;;;9.76;52.42;97004.06;4982605;28;20050;-79
2021/01/22 09:35:21;;;;;;;15.07;2.70;;;;;;;10.54;50.07;97001.16;4998066;28;20065;-78
2021/01/22 09:37:48;;;;;;;14.13;2.70;;;;;;;10.90;49.22;97012.31;4968008;28;20070;-80
2021/01/22 09:40:16;;;;;;;21.92;2.65;;;;;;;11.88;47.24;97028.91;5000868;28;20508;-79
2021/01/22 09:42:42;;;;;;;10.30;2.20;;;;;;;11.84;45.55;97021.31;4998495;28;20481;-76
2021/01/22 09:45:11;;;;;;;11.57;2.97;;;;;;;11.06;48.34;97043.72;4985710;28;20046;-78
2021/01/22 09:47:37;;;;;;;16.40;2.70;;;;;;;11.41;47.79;97047.13;4981638;28;20168;-76
2021/01/22 09:50:07;;;;;;;12.18;2.55;;;;;;;11.34;49.04;97056.22;4984790;28;20053;-76
2021/01/22 09:52:36;;;;;;;13.90;2.53;;;;;;;11.85;45.63;97055.22;5002375;28;20575;-78
2021/01/22 09:55:05;;;;;;;12.20;2.72;;;;;;;12.93;43.33;97064.78;4991127;28;20205;-78
2021/01/22 09:57:34;;;;;;;;;;;;;;;13.06;44.17;97063.97;4988655;28;20106;-76
2021/01/22 10:00:04;;;;;;;9.25;2.15;;;;;;;14.02;41.71;97079.09;4987690;28;20013;-75
2021/01/22 10:02:31;;;;;;;12.05;2.88;;;;;;;13.89;41.55;97081.66;4981440;28;20413;-75
2021/01/22 10:04:59;;;;;;;13.68;2.03;;;;;;;14.01;41.03;97085.28;4987540;28;20058;-76
2021/01/22 10:07:32;;;;;;;11.82;2.83;;;;;;;13.65;41.24;97104.16;4987282;28;20069;-77
2021/01/22 10:09:59;;;;;;;6.32;1.90;;;;;;;15.74;37.53;97102.72;4976283;28;20061;-78
2021/01/22 10:12:25;;;;;;;12.68;2.88;;;;;;;16.24;37.37;97119.41;4984178;28;20042;-75
2021/01/22 10:14:52;;;;;;;8.88;2.17;;;;;;;15.57;37.50;97119.69;4984760;28;20379;-76
2021/01/22 10:17:20;;;;;;;8.70;2.67;;;;;;;15.45;37.60;97117.84;5010268;28;20042;-77
2021/01/22 10:19:46;;;;;;;15.88;2.75;;;;;;;15.58;37.07;97125.81;5022630;28;20072;-80
2021/01/22 10:22:13;;;;;;;18.73;2.65;;;;;;;16.89;34.67;97133.97;5009131;28;20047;-77
2021/01/22 10:24:41;;;;;;;11.75;2.72;;;;;;;16.32;35.93;97132.88;4989841;28;24393;-78
2021/01/22 10:27:09;;;;;;;12.50;2.63;;;;;;;16.13;36.02;97135.97;5009462;28;20053;-77
2021/01/22 10:29:36;;;;;;;11.30;2.35;;;;;;;17.94;33.18;97152.41;5002252;28;20056;-77
2021/01/22 10:32:02;;;;;;;8.00;2.55;;;;;;;17.01;35.68;97148.06;5015104;28;20042;-77
2021/01/22 10:34:29;;;;;;;11.93;2.92;;;;;;;16.00;35.00;97143.91;5002774;28;20072;-77
2021/01/22 10:36:55;;;;;;;7.20;2.40;;;;;;;15.68;36.98;97146.09;5009696;28;20052;-75
2021/01/22 10:39:22;;;;;;;10.07;2.70;;;;;;;15.69;37.08;97155.69;5021224;28;20429;-76
2021/01/22 10:41:49;;;;;;;10.20;2.42;;;;;;;17.29;33.15;97171.44;5026251;28;20054;-77
2021/01/22 10:44:18;;;;;;;10.18;2.00;;;;;;;16.76;33.65;97148.16;5007387;28;20064;-78
2021/01/22 10:46:45;;;;;;;10.48;2.65;;;;;;;17.11;33.26;97159.63;5026093;28;20083;-77
2021/01/22 10:49:12;;;;;;;10.45;2.45;;;;;;;17.89;32.38;97172.25;5026276;28;20076;-77
2021/01/22 10:51:39;;;;;;;8.23;2.25;;;;;;;19.95;29.24;97180.06;5022199;28;20077;-77
2021/01/22 10:54:06;;;;;;;13.57;2.58;;;;;;;21.45;26.92;97181.81;5008365;28;20084;-77
2021/01/22 10:56:32;;;;;;;12.90;2.80;;;;;;;20.84;28.38;97182.00;5005772;28;20041;-75
2021/01/22 10:58:59;;;;;;;14.15;2.28;;;;;;;20.18;27.74;97187.88;5025127;28;20056;-76
2021/01/22 11:01:26;;;;;;;11.63;2.60;;;;;;;20.67;27.71;97181.84;4983937;28;20061;-78
2021/01/22 11:03:53;;;;;;;13.52;2.35;;;;;;;21.49;25.95;97183.22;5029073;28;20543;-76
2021/01/22 11:06:19;;;;;;;12.48;2.97;;;;;;;20.74;27.02;97189.09;5000623;28;20054;-77
2021/01/22 11:08:46;;;;;;;8.80;1.98;;;;;;;19.08;29.24;97191.78;4990366;28;20045;-78
2021/01/22 11:11:13;;;;;;;9.27;2.03;;;;;;;19.83;29.52;97182.91;5020904;28;20041;-77
2021/01/22 11:13:39;;;;;;;10.60;2.42;;;;;;;20.60;28.13;97178.88;5007530;28;20075;-76
2021/01/22 11:16:06;;;;;;;14.38;2.55;;;;;;;20.84;27.57;97187.31;4986930;28;20467;-77
2021/01/22 11:18:36;;;;;;;11.70;3.00;;;;;;;20.55;27.60;97193.50;5003885;28;20045;-76
2021/01/22 11:21:03;;;;;;;14.23;2.47;;;;;;;21.58;26.26;97192.19;5022172;28;20077;-77
2021/01/22 11:23:29;;;;;;;15.82;3.03;;;;;;;21.16;26.30;97187.13;5023555;28;20476;-77
2021/01/22 11:25:56;;;;;;;11.70;3.17;;;;;;;19.03;29.36;97188.66;5006182;28;20128;-78
2021/01/22 11:28:27;;;;;;;15.60;3.30;;;;;;;19.36;29.06;97192.16;4978438;28;20038;-76
2021/01/22 11:30:54;;;;;;;14.82;2.60;;;;;;;18.73;30.30;97193.78;4994079;28;20041;-77
2021/01/22 11:33:21;;;;;;;8.40;2.72;;;;;;;16.32;34.38;97194.31;4981067;28;20444;-77
2021/01/22 11:35:48;;;;;;;13.30;2.78;;;;;;;17.97;31.43;97190.97;5016006;28;20150;-78
2021/01/22 11:38:15;;;;;;;14.93;2.78;;;;;;;18.13;31.08;97186.22;4996371;28;20167;-78
2021/01/22 11:40:45;;;;;;;8.63;2.40;;;;;;;17.28;32.15;97182.94;4983216;28;20901;-77
2021/01/22 11:43:12;;;;;;;13.48;2.75;;;;;;;17.61;32.29;97174.31;5009016;28;20114;-76
2021/01/22 11:45:38;;;;;;;10.75;2.38;;;;;;;16.99;32.85;97176.34;5001502;28;20131;-77